Skip Navigation Links
NOAA logo - Click to go to the NOAA homepage
NOAA's National Weather Service
Alaska Aviation Weather Unit
  NWS logo - Click to go to the NWS homepage
Left Navbar Graphic     01 AKDT = 09 GMT

   
NOAA is celebrating 200 years of science, service, and stewardship. Visit the NOAA 200th celebration Web site to learn more.
USA.gov is the U.S. Government's official Web portal to all Federal, state and local government Web resources and services.
Facebook
NWS on Facebook

Important Change Regarding the AAWU Web Presence

 

Over the last several months, the AAWU has been working to navigate its webpages to a nationally supported server. Security, as well as other needs, have necessitated the change.  We have been given an extension for the site changeover while we diligently work at addressing feedback received. As of July 14, 2017, aawu.arh.noaa.gov will be discontinued. The new AAWU web address is weather.gov/aawu. It is now live and will run in-parallel with the old site until it is discontinued on July 14, 2017. Please continue to send any feedback or questions regarding the new webpages to nws.ar.aawu.webauthors@noaa.gov.  Thank you for your patience during this time of transition.
AAWU Home :: Display TAF Add Bookmark
PAWD 190312Z AUTO 00000KT 9SM -RA FEW012 OVC046 11/10 A2972 RMK
     AO2 P0000 T01060100 TSNO=

METAR PAWD 190353Z AUTO 00000KT 10SM -RA OVC049 11/10 A2972 RMK AO2
     SLP065 P0003 T01060100 TSNO=

METAR PAWD 190453Z AUTO 00000KT 4SM RA BR BKN043 OVC050 10/10 A2973 RMK
     AO2 SLP066 P0003 T01000100 TSNO=

METAR PAWD 190553Z AUTO 35005KT 8SM -RA OVC050 10/09 A2973 RMK AO2
     SLP067 P0007 60017 T01000094 10122 20100 53001 TSNO=

METAR PAWD 190653Z AUTO 01006KT 10SM -RA OVC050 10/09 A2972 RMK AO2
     SLP064 P0001 T01000094 TSNO=

METAR PAWD 190753Z AUTO 03006KT 10SM SCT050 OVC070 09/09 A2972 RMK
 AO2 RAE06 SLP063 P0001 T00940089 TSNO=

METAR PAWD 190853Z AUTO 01005KT 10SM BKN065 OVC100 09/08 A2972 RMK AO2
     SLP063 60002 T00940083 401220044 55003 TSNO=


NOAA's National Weather Service
Alaska Aviation Weather Unit
6930 Sand Lake Road
Anchorage, AK 99502-1845
Disclaimer
Credits
Glossary
Privacy Policy
About Us
Career Opportunities
Contact AAWU Internet Services Site last modified: April, 17th 2012